Hengoed, United Kingdom
Current Conditions -  °F | °C
As of 12:20 PM on Monday 24 Nov 2014 (Local Time) from EGFF Reporting Station
Few Clouds Few Clouds  
Wind Chill: 46°   Ceiling: Unl
Heat Index: 48°   Visibility: 6mi
Dew Point: 45°   Wind: 5mph
Humidity: 87%   Direction: 130°SE
Pressure: 30.33"   Gusts: NA
Location:  51.64°N, 3.24°W
Report Text: EGFF 241220Z 13004KT 100V160 9999 FEW010 09/07 Q1027
Loading
Personal Weather Stations






























Interactive Weather Map New forecast layout! Learn more

10-Day Weather Forecast

Advertisements
Track Severe Weather on mobile